Time;durP1;ratioP1;P1;durP2;ratioP2;P2;SDS_P1;SDS_P2;PMS_P1;PMS_P2;Temp;Humidity;BMP_temperature;BMP_pressure;BME280_temperature;BME280_humidity;BME280_pressure;Samples;Min_cycle;Max_cycle;Signal;HPM_P1;HPM_P2
2023/07/17 00:01:02;;;;;;;23.00;13.87;;;14.90;99.90;;;;;;5073847;28;20167;-70
2023/07/17 00:03:29;;;;;;;20.80;13.47;;;14.90;99.90;;;;;;5073900;28;20176;-70
2023/07/17 00:05:57;;;;;;;22.70;12.53;;;15.00;99.90;;;;;;5073794;28;20195;-72
2023/07/17 00:08:25;;;;;;;15.27;10.60;;;15.20;99.90;;;;;;5073574;28;20168;-70
2023/07/17 00:10:53;;;;;;;17.40;8.70;;;15.50;99.90;;;;;;5073614;28;20276;-69
2023/07/17 00:13:20;;;;;;;16.13;9.33;;;15.90;99.90;;;;;;5073748;28;20201;-69
2023/07/17 00:15:47;;;;;;;16.53;9.73;;;16.40;99.90;;;;;;5073767;28;20216;-68
2023/07/17 00:18:15;;;;;;;14.10;6.60;;;17.10;99.90;;;;;;5073917;28;20178;-69
2023/07/17 00:20:42;;;;;;;11.20;5.00;;;17.50;99.90;;;;;;5073002;28;20169;-68
2023/07/17 00:23:10;;;;;;;9.77;4.43;;;18.10;99.90;;;;;;5073353;28;20709;-68
2023/07/17 00:25:37;;;;;;;9.47;3.77;;;18.30;99.90;;;;;;5073775;28;20168;-69
2023/07/17 00:28:04;;;;;;;9.93;4.13;;;18.20;99.90;;;;;;5073345;28;20271;-68
2023/07/17 00:30:32;;;;;;;9.37;3.17;;;18.30;99.90;;;;;;5073647;28;20203;-69
2023/07/17 00:32:59;;;;;;;5.73;3.20;;;18.30;99.90;;;;;;5073473;28;20168;-68
2023/07/17 00:35:26;;;;;;;5.63;3.10;;;18.20;99.90;;;;;;5073378;28;20218;-69
2023/07/17 00:37:54;;;;;;;11.93;3.00;;;18.10;99.90;;;;;;5073626;28;20220;-68
2023/07/17 00:40:21;;;;;;;8.50;2.60;;;18.00;99.90;;;;;;5073344;28;20180;-69
2023/07/17 00:42:48;;;;;;;7.23;2.90;;;17.80;99.90;;;;;;5073269;28;20175;-68
2023/07/17 00:45:16;;;;;;;6.20;2.50;;;17.50;99.90;;;;;;5073368;28;20177;-69
2023/07/17 00:47:43;;;;;;;18.20;3.70;;;17.40;99.90;;;;;;5073142;28;20183;-69
2023/07/17 00:50:11;;;;;;;13.60;4.00;;;17.40;99.90;;;;;;5074801;28;20272;-69
2023/07/17 00:52:40;;;;;;;10.10;4.87;;;17.40;99.90;;;;;;5073876;28;20289;-71
2023/07/17 00:55:08;;;;;;;8.73;3.90;;;17.40;99.90;;;;;;5073044;28;20194;-68
2023/07/17 00:57:36;;;;;;;11.20;3.70;;;17.40;99.90;;;;;;5071945;28;20174;-68
2023/07/17 01:00:05;;;;;;;13.23;4.50;;;17.40;99.90;;;;;;5073096;28;20250;-68
2023/07/17 01:02:33;;;;;;;7.70;3.80;;;17.30;99.90;;;;;;5071680;28;20232;-69
2023/07/17 01:05:00;;;;;;;9.43;4.07;;;17.30;99.90;;;;;;5073089;28;20267;-68
2023/07/17 01:07:28;;;;;;;11.73;4.17;;;17.30;99.90;;;;;;5072911;28;20203;-68
2023/07/17 01:09:55;;;;;;;11.77;4.30;;;17.20;99.90;;;;;;5073090;28;20204;-67
2023/07/17 01:12:22;;;;;;;14.07;4.70;;;17.20;99.90;;;;;;5073159;28;20187;-68
2023/07/17 01:14:50;;;;;;;12.93;4.87;;;17.50;99.90;;;;;;5072915;28;20228;-71
2023/07/17 01:17:17;;;;;;;9.20;4.10;;;17.70;99.90;;;;;;5073158;28;20176;-68
2023/07/17 01:19:44;;;;;;;7.13;3.73;;;18.20;99.90;;;;;;5073194;28;20679;-68
2023/07/17 01:22:17;;;;;;;10.33;4.10;;;18.40;99.90;;;;;;5072774;28;20231;-67
2023/07/17 01:24:45;;;;;;;9.77;4.17;;;19.30;99.90;;;;;;5072846;28;20253;-68
2023/07/17 01:27:13;;;;;;;13.23;4.13;;;19.90;99.90;;;;;;5072787;28;20240;-68
2023/07/17 01:29:40;;;;;;;9.17;4.63;;;20.40;99.90;;;;;;5072979;28;20172;-68
2023/07/17 01:32:08;;;;;;;15.03;4.87;;;20.30;99.90;;;;;;5074641;28;20538;-69
2023/07/17 01:34:35;;;;;;;7.50;5.13;;;20.20;99.90;;;;;;5076744;28;20572;-68
2023/07/17 01:37:03;;;;;;;12.17;6.23;;;19.90;99.90;;;;;;5076941;28;20222;-68
2023/07/17 01:39:31;;;;;;;8.57;5.80;;;19.50;99.90;;;;;;5075391;28;20183;-68
2023/07/17 01:41:58;;;;;;;15.17;8.20;;;19.10;99.90;;;;;;5076770;28;20186;-68
2023/07/17 01:44:30;;;;;;;18.27;10.67;;;18.80;99.90;;;;;;5076679;28;20172;-68
2023/07/17 01:46:57;;;;;;;20.87;12.60;;;18.60;99.90;;;;;;5076756;28;20779;-67
2023/07/17 01:49:25;;;;;;;19.40;16.23;;;18.50;99.90;;;;;;5076710;28;20261;-68
2023/07/17 01:51:52;;;;;;;23.43;16.83;;;18.20;99.90;;;;;;5076589;28;20212;-68
2023/07/17 01:54:19;;;;;;;23.30;18.43;;;18.10;99.90;;;;;;5076359;28;20171;-68
2023/07/17 01:56:47;;;;;;;25.90;18.77;;;18.10;99.90;;;;;;5076807;28;20181;-68
2023/07/17 01:59:14;;;;;;;28.70;18.80;;;18.10;99.90;;;;;;5076482;28;20259;-68
2023/07/17 02:01:41;;;;;;;22.00;17.00;;;18.40;99.90;;;;;;5076310;28;20210;-70
2023/07/17 02:04:09;;;;;;;23.17;17.57;;;18.40;99.90;;;;;;5075098;28;20181;-69
2023/07/17 02:06:36;;;;;;;19.93;17.67;;;18.30;99.90;;;;;;5076471;28;20175;-67
2023/07/17 02:09:04;;;;;;;25.87;18.00;;;18.20;99.90;;;;;;5074921;28;20580;-67
2023/07/17 02:11:31;;;;;;;30.57;19.13;;;18.20;99.90;;;;;;5076172;28;20225;-67
2023/07/17 02:13:58;;;;;;;27.07;15.40;;;18.10;99.90;;;;;;5076324;28;20171;-67
2023/07/17 02:16:26;;;;;;;20.63;14.33;;;18.20;99.90;;;;;;5076173;28;20172;-68
2023/07/17 02:18:53;;;;;;;16.07;10.37;;;18.20;99.90;;;;;;5076256;28;20269;-67
2023/07/17 02:21:21;;;;;;;15.43;9.47;;;18.50;99.90;;;;;;5075823;28;20186;-67
2023/07/17 02:23:48;;;;;;;15.37;7.20;;;19.30;99.90;;;;;;5075875;28;20216;-68
2023/07/17 02:26:16;;;;;;;13.03;7.50;;;19.60;99.90;;;;;;5075951;28;20640;-68
2023/07/17 02:28:43;;;;;;;10.23;6.70;;;19.70;99.90;;;;;;5076178;28;20720;-68
2023/07/17 02:31:10;;;;;;;9.77;7.00;;;20.50;99.90;;;;;;5075924;28;20605;-67
2023/07/17 02:33:38;;;;;;;11.00;6.50;;;21.30;99.90;;;;;;5074714;28;20655;-67
2023/07/17 02:36:05;;;;;;;13.90;6.23;;;21.80;99.90;;;;;;5076026;28;20267;-69
2023/07/17 02:41:54;;;;;;;11.43;6.00;;;22.30;99.90;;;;;;5074812;28;20701;-68
2023/07/17 02:44:22;;;;;;;12.10;6.23;;;22.80;99.90;;;;;;5075592;28;20183;-68
2023/07/17 02:46:49;;;;;;;18.90;5.80;;;22.50;99.90;;;;;;5075759;28;20172;-68
2023/07/17 02:49:17;;;;;;;13.83;6.27;;;22.50;99.90;;;;;;5074518;28;20540;-68
2023/07/17 02:51:44;;;;;;;12.77;5.13;;;22.60;99.90;;;;;;5075695;28;20230;-67
2023/07/17 02:54:12;;;;;;;11.33;2.90;;;22.70;99.90;;;;;;5075575;28;20175;-66
2023/07/17 02:56:39;;;;;;;6.30;2.47;;;22.80;99.90;;;;;;5075491;28;20176;-67
2023/07/17 02:59:07;;;;;;;10.10;2.47;;;23.50;99.90;;;;;;5075342;28;20172;-67
2023/07/17 03:01:34;;;;;;;12.90;2.80;;;23.20;99.90;;;;;;5073718;28;20192;-67
2023/07/17 03:04:01;;;;;;;7.03;2.70;;;22.50;99.90;;;;;;5075313;28;20506;-68
2023/07/17 03:06:29;;;;;;;11.80;3.20;;;22.50;99.90;;;;;;5075208;28;20188;-68
2023/07/17 03:08:56;;;;;;;9.60;2.77;;;23.00;99.90;;;;;;5075331;28;20205;-67
2023/07/17 03:11:23;;;;;;;8.17;2.40;;;22.60;99.90;;;;;;5074867;28;20222;-67
2023/07/17 03:13:51;;;;;;;5.40;2.20;;;22.80;99.90;;;;;;5075244;28;20172;-67
2023/07/17 03:16:18;;;;;;;7.83;2.47;;;22.20;99.90;;;;;;5075091;28;20181;-67
2023/07/17 03:18:46;;;;;;;6.43;2.53;;;21.70;99.90;;;;;;5075077;28;20263;-67
2023/07/17 03:21:13;;;;;;;9.47;2.37;;;21.20;99.90;;;;;;5074624;28;20218;-67
2023/07/17 03:23:41;;;;;;;9.97;2.93;;;20.90;99.90;;;;;;5074634;28;20223;-67
2023/07/17 03:26:08;;;;;;;8.10;2.70;;;20.70;99.90;;;;;;5074802;28;20182;-68
2023/07/17 03:28:37;;;;;;;9.83;3.23;;;20.80;99.90;;;;;;5073576;28;20554;-67
2023/07/17 03:31:04;;;;;;;10.47;2.70;;;20.50;99.90;;;;;;5074552;28;20216;-68
2023/07/17 03:33:34;;;;;;;9.83;3.30;;;20.30;99.90;;;;;;5074635;28;20149;-68
2023/07/17 03:36:01;;;;;;;13.17;3.87;;;20.60;99.90;;;;;;5074943;28;20576;-69
2023/07/17 03:38:29;;;;;;;12.00;4.23;;;20.60;99.90;;;;;;5074423;28;20259;-67
2023/07/17 03:40:56;;;;;;;6.70;4.10;;;20.40;99.90;;;;;;5074394;28;20176;-67
2023/07/17 03:43:24;;;;;;;9.13;3.30;;;21.00;99.90;;;;;;5074342;28;20172;-70
2023/07/17 03:45:51;;;;;;;7.43;3.20;;;21.70;99.90;;;;;;5074548;28;20170;-67
2023/07/17 03:48:19;;;;;;;9.47;3.10;;;22.10;99.90;;;;;;5074333;28;20652;-70
2023/07/17 03:50:48;;;;;;;7.43;3.37;;;22.10;99.90;;;;;;5074321;28;20211;-71
2023/07/17 03:53:15;;;;;;;7.20;3.00;;;21.90;99.90;;;;;;5074073;28;20574;-69
2023/07/17 03:55:42;;;;;;;5.17;2.60;;;21.90;99.90;;;;;;5073195;28;20232;-70
2023/07/17 03:58:10;;;;;;;10.47;3.07;;;22.20;99.90;;;;;;5074143;28;20522;-69
2023/07/17 04:00:37;;;;;;;10.30;3.27;;;22.20;99.90;;;;;;5073981;28;20185;-69
2023/07/17 04:03:04;;;;;;;9.13;3.20;;;22.00;99.90;;;;;;5074071;28;20179;-68
2023/07/17 04:05:32;;;;;;;8.37;3.03;;;22.20;99.90;;;;;;5074300;28;20217;-70
2023/07/17 04:07:59;;;;;;;6.37;2.77;;;22.20;99.90;;;;;;5073903;28;20653;-70
2023/07/17 04:10:28;;;;;;;12.43;3.40;;;22.40;99.90;;;;;;5074000;28;20215;-68
2023/07/17 04:12:56;;;;;;;8.47;3.50;;;21.90;99.90;;;;;;5074021;28;20609;-68
2023/07/17 04:15:23;;;;;;;13.57;3.43;;;22.10;99.90;;;;;;5072644;28;20199;-68
2023/07/17 04:18:05;;;;;;;10.57;3.10;;;21.70;99.90;;;;;;5090879;27;20600;-71
2023/07/17 04:20:33;;;;;;;9.77;3.70;;;21.70;99.90;;;;;;5090540;28;20232;-72
2023/07/17 04:23:00;;;;;;;10.83;3.77;;;21.60;99.90;;;;;;5090658;28;20174;-69
2023/07/17 04:25:28;;;;;;;11.27;3.47;;;21.40;99.90;;;;;;5090956;28;20175;-68
2023/07/17 04:27:56;;;;;;;12.67;3.50;;;21.40;99.90;;;;;;5089539;28;20531;-70
2023/07/17 04:30:23;;;;;;;10.07;4.03;;;21.40;99.90;;;;;;5090907;28;20624;-68
2023/07/17 04:32:54;;;;;;;8.50;3.13;;;21.30;99.90;;;;;;5090541;28;20261;-68
2023/07/17 04:35:22;;;;;;;7.47;2.73;;;21.10;99.90;;;;;;5090496;28;20171;-68
2023/07/17 04:37:51;;;;;;;5.53;2.90;;;21.20;99.90;;;;;;5090433;28;20215;-68
2023/07/17 04:40:19;;;;;;;8.77;3.80;;;21.30;99.90;;;;;;5090338;28;20257;-69
2023/07/17 04:42:46;;;;;;;9.37;3.40;;;21.70;99.90;;;;;;5090406;28;20182;-67
2023/07/17 04:45:15;;;;;;;6.13;2.93;;;21.40;99.90;;;;;;5090227;28;20227;-68
2023/07/17 04:47:43;;;;;;;8.47;3.63;;;21.40;99.90;;;;;;5090455;28;20187;-69
2023/07/17 04:50:10;;;;;;;9.17;3.93;;;21.20;99.90;;;;;;5090390;28;20201;-67
2023/07/17 04:52:38;;;;;;;13.77;3.10;;;20.90;99.90;;;;;;5090294;28;20517;-68
2023/07/17 04:55:06;;;;;;;8.47;2.93;;;20.80;99.90;;;;;;5090056;28;20656;-68
2023/07/17 04:57:33;;;;;;;8.57;3.67;;;20.80;99.90;;;;;;5089898;28;20209;-69
2023/07/17 05:00:00;;;;;;;10.77;3.87;;;21.00;99.90;;;;;;5089818;28;20193;-68
2023/07/17 05:02:28;;;;;;;7.90;4.03;;;21.00;99.90;;;;;;5088733;28;20182;-69
2023/07/17 05:04:55;;;;;;;8.67;4.33;;;20.80;99.90;;;;;;5090254;28;20221;-69
2023/07/17 05:07:22;;;;;;;7.37;3.10;;;20.60;99.90;;;;;;5089936;28;20637;-68
2023/07/17 05:09:50;;;;;;;7.00;2.80;;;20.60;99.90;;;;;;5089858;28;20641;-68
2023/07/17 05:12:17;;;;;;;8.55;3.20;;;20.90;99.90;;;;;;5089747;28;20179;-69
2023/07/17 05:14:44;;;;;;;8.90;3.60;;;20.70;99.90;;;;;;5089781;28;20186;-68
2023/07/17 05:17:12;;;;;;;7.50;3.87;;;20.90;99.90;;;;;;5089630;28;20239;-68
2023/07/17 05:19:39;;;;;;;7.20;3.13;;;20.70;99.90;;;;;;5088255;28;20179;-68
2023/07/17 05:22:07;;;;;;;6.83;3.10;;;20.50;99.90;;;;;;5089661;28;20179;-68
2023/07/17 05:24:34;;;;;;;6.27;2.93;;;20.50;99.90;;;;;;5089974;28;20210;-69
2023/07/17 05:27:02;;;;;;;7.60;3.33;;;20.50;99.90;;;;;;5089543;28;20185;-68
2023/07/17 05:29:29;;;;;;;9.37;3.67;;;20.60;99.90;;;;;;5075532;28;20175;-70
2023/07/17 05:31:56;;;;;;;10.07;3.60;;;20.40;99.90;;;;;;5075968;28;20241;-69
2023/07/17 05:34:24;;;;;;;7.87;3.23;;;20.40;99.90;;;;;;5076035;28;20276;-69
2023/07/17 05:36:51;;;;;;;7.47;3.20;;;20.20;99.90;;;;;;5075711;28;20204;-69
2023/07/17 05:39:18;;;;;;;7.90;2.93;;;20.10;99.90;;;;;;5075700;28;20234;-68
2023/07/17 05:41:46;;;;;;;8.97;3.53;;;19.90;99.90;;;;;;5075577;28;20213;-69
2023/07/17 05:44:13;;;;;;;6.37;3.53;;;19.50;99.90;;;;;;5075858;28;20562;-68
2023/07/17 05:46:41;;;;;;;8.30;3.73;;;19.40;99.90;;;;;;5075873;28;20221;-69
2023/07/17 05:49:08;;;;;;;6.07;2.97;;;19.30;99.90;;;;;;5076576;28;20183;-68
2023/07/17 05:51:35;;;;;;;6.97;3.77;;;19.30;99.90;;;;;;5075900;28;20188;-69
2023/07/17 05:54:03;;;;;;;7.60;3.10;;;19.10;99.90;;;;;;5075937;28;20180;-68
2023/07/17 05:56:30;;;;;;;8.50;3.47;;;19.10;99.90;;;;;;5077277;28;20277;-68
2023/07/17 05:58:57;;;;;;;10.07;3.20;;;19.00;99.90;;;;;;5075530;28;20536;-68
2023/07/17 06:01:25;;;;;;;6.27;2.97;;;18.90;99.90;;;;;;5075181;28;20203;-71
2023/07/17 06:03:54;;;;;;;6.23;3.53;;;18.90;99.90;;;;;;5075109;28;20270;-68
2023/07/17 06:06:21;;;;;;;7.50;3.50;;;18.80;99.90;;;;;;5075431;28;20180;-68
2023/07/17 06:08:49;;;;;;;7.00;3.80;;;18.80;99.90;;;;;;5075329;28;20180;-68
2023/07/17 06:11:16;;;;;;;9.57;3.90;;;18.70;99.90;;;;;;5075106;28;20180;-68
2023/07/17 06:13:43;;;;;;;5.33;3.90;;;18.70;99.90;;;;;;5075193;28;20187;-68
2023/07/17 06:16:11;;;;;;;8.30;4.03;;;18.60;99.90;;;;;;5074865;28;20326;-68
2023/07/17 06:18:38;;;;;;;15.40;4.03;;;18.60;99.90;;;;;;5075160;28;20221;-68
2023/07/17 06:21:05;;;;;;;10.53;4.03;;;18.60;99.90;;;;;;5074671;28;20271;-67
2023/07/17 06:23:33;;;;;;;8.17;3.53;;;18.50;99.90;;;;;;5074922;28;20176;-68
2023/07/17 06:26:00;;;;;;;9.33;4.10;;;18.40;99.90;;;;;;5074739;28;20513;-68
2023/07/17 06:28:29;;;;;;;9.10;3.90;;;18.30;99.90;;;;;;5074896;28;20271;-68
2023/07/17 06:30:57;;;;;;;6.63;3.90;;;18.30;99.90;;;;;;5074790;28;20175;-68
2023/07/17 06:33:24;;;;;;;9.33;4.23;;;18.40;99.90;;;;;;5074544;28;20184;-68
2023/07/17 06:35:52;;;;;;;8.03;3.70;;;18.30;99.90;;;;;;5074492;28;20267;-69
2023/07/17 06:38:19;;;;;;;8.17;4.03;;;18.30;99.90;;;;;;5074511;28;20187;-68
2023/07/17 06:40:52;;;;;;;12.70;4.77;;;18.20;99.90;;;;;;5073536;28;20180;-68
2023/07/17 06:43:19;;;;;;;7.20;4.30;;;18.10;99.90;;;;;;5073324;28;20270;-68
2023/07/17 06:45:48;;;;;;;10.40;4.43;;;18.20;99.90;;;;;;5074612;28;20597;-68
2023/07/17 06:48:16;;;;;;;5.33;3.77;;;18.10;99.90;;;;;;5074389;28;20223;-68
2023/07/17 06:50:43;;;;;;;6.87;3.90;;;18.00;99.90;;;;;;5074214;28;20211;-68
2023/07/17 06:53:10;;;;;;;6.00;3.47;;;18.00;99.90;;;;;;5074248;28;20707;-68
2023/07/17 06:55:38;;;;;;;9.73;3.30;;;18.00;99.90;;;;;;5074359;28;20214;-68
2023/07/17 06:58:05;;;;;;;7.60;2.60;;;18.00;99.90;;;;;;5074117;28;20187;-69
2023/07/17 07:00:33;;;;;;;8.40;2.50;;;17.90;99.90;;;;;;5073875;28;20182;-68
2023/07/17 07:03:00;;;;;;;8.50;3.00;;;17.90;99.90;;;;;;5073908;28;20573;-68
2023/07/17 07:05:27;;;;;;;5.60;2.57;;;17.80;99.90;;;;;;5074013;28;20214;-68
2023/07/17 07:07:55;;;;;;;7.37;3.10;;;17.60;99.90;;;;;;5073743;28;20256;-68
2023/07/17 07:10:22;;;;;;;5.00;3.00;;;17.50;99.90;;;;;;5074094;28;20179;-68
2023/07/17 07:12:49;;;;;;;11.80;3.70;;;17.30;99.90;;;;;;5073900;28;20629;-69
2023/07/17 07:15:17;;;;;;;7.60;2.77;;;17.20;99.90;;;;;;5073862;28;20214;-68
2023/07/17 07:17:45;;;;;;;7.83;2.93;;;17.00;99.90;;;;;;5073509;28;20275;-68
2023/07/17 07:20:13;;;;;;;7.23;3.47;;;16.90;99.90;;;;;;5073659;28;20171;-68
2023/07/17 07:22:40;;;;;;;9.43;3.60;;;16.80;99.90;;;;;;5074046;28;20203;-68
2023/07/17 07:25:08;;;;;;;7.33;3.40;;;16.70;99.90;;;;;;5073934;28;20175;-68
2023/07/17 07:27:35;;;;;;;7.47;3.30;;;16.60;99.90;;;;;;5072145;28;20270;-68
2023/07/17 07:30:04;;;;;;;10.47;3.27;;;16.60;99.90;;;;;;5073648;28;20664;-68
2023/07/17 07:32:31;;;;;;;8.97;3.17;;;16.60;99.90;;;;;;5073980;28;20172;-68
2023/07/17 07:34:59;;;;;;;10.17;4.20;;;16.60;99.90;;;;;;5073585;28;20172;-68
2023/07/17 07:37:26;;;;;;;9.47;3.50;;;16.50;99.90;;;;;;5072246;28;20266;-68
2023/07/17 07:39:54;;;;;;;10.50;3.60;;;16.30;99.90;;;;;;5073533;28;20176;-68
2023/07/17 07:42:21;;;;;;;12.20;4.17;;;16.30;99.90;;;;;;5073071;28;20263;-69
2023/07/17 07:44:48;;;;;;;7.60;4.13;;;16.20;99.90;;;;;;5073381;28;20172;-68
2023/07/17 07:47:16;;;;;;;15.27;4.00;;;16.00;99.90;;;;;;5073158;28;20172;-69
2023/07/17 07:49:43;;;;;;;6.53;3.10;;;15.90;99.90;;;;;;5073464;28;20175;-67
2023/07/17 07:52:11;;;;;;;11.47;3.73;;;15.70;99.90;;;;;;5073134;28;20203;-68
2023/07/17 07:54:38;;;;;;;8.17;4.20;;;15.60;99.90;;;;;;5071792;28;20284;-68
2023/07/17 07:57:06;;;;;;;10.67;3.93;;;15.50;99.90;;;;;;5073150;28;20204;-68
2023/07/17 07:59:34;;;;;;;8.63;4.20;;;15.40;99.90;;;;;;5073102;28;20175;-68
2023/07/17 08:02:01;;;;;;;12.00;4.53;;;15.30;99.90;;;;;;5073026;28;20540;-70
2023/07/17 08:04:29;;;;;;;9.80;3.87;;;15.30;99.90;;;;;;5073098;28;20636;-69
2023/07/17 08:06:57;;;;;;;11.47;3.63;;;15.20;99.90;;;;;;5072876;28;20209;-69
2023/07/17 08:09:25;;;;;;;13.80;3.50;;;15.10;99.90;;;;;;5071703;28;20181;-68
2023/07/17 08:11:53;;;;;;;9.40;4.23;;;15.10;99.90;;;;;;5073121;28;20649;-68
2023/07/17 08:14:23;;;;;;;10.47;4.03;;;15.00;99.90;;;;;;5071626;28;20183;-69
2023/07/17 08:16:51;;;;;;;9.10;3.40;;;14.90;99.90;;;;;;5072780;28;20704;-70
2023/07/17 08:19:20;;;;;;;9.27;4.43;;;14.90;99.90;;;;;;5073047;28;20250;-70
2023/07/17 08:21:47;;;;;;;8.47;3.73;;;14.90;99.90;;;;;;5072707;28;20262;-68
2023/07/17 08:24:14;;;;;;;7.67;3.67;;;14.80;99.90;;;;;;5072902;28;20598;-71
2023/07/17 08:26:43;;;;;;;11.13;4.73;;;14.80;99.90;;;;;;5072984;28;20225;-70
2023/07/17 08:29:11;;;;;;;11.50;4.50;;;14.70;99.90;;;;;;5073091;28;20193;-71
2023/07/17 08:31:38;;;;;;;15.97;4.30;;;14.60;99.90;;;;;;5071642;28;20176;-69
2023/07/17 08:34:06;;;;;;;12.37;4.07;;;14.60;99.90;;;;;;5072927;28;20254;-71
2023/07/17 08:36:34;;;;;;;8.53;3.40;;;14.60;99.90;;;;;;5072872;28;20210;-70
2023/07/17 08:39:01;;;;;;;8.80;4.13;;;14.60;99.90;;;;;;5072834;28;20168;-70
2023/07/17 08:41:28;;;;;;;10.37;3.73;;;14.70;99.90;;;;;;5072767;28;20711;-68
2023/07/17 08:43:57;;;;;;;14.33;3.77;;;14.70;99.90;;;;;;5072965;28;20530;-69
2023/07/17 08:46:24;;;;;;;14.00;3.50;;;14.80;99.90;;;;;;5072923;28;20184;-70
2023/07/17 08:48:54;;;;;;;9.17;3.30;;;14.70;99.90;;;;;;5071462;28;20184;-72
2023/07/17 08:51:22;;;;;;;10.23;3.30;;;14.70;99.90;;;;;;5071540;28;20184;-71
2023/07/17 08:53:52;;;;;;;10.97;3.50;;;14.60;99.90;;;;;;5072163;28;20176;-72
2023/07/17 08:56:20;;;;;;;10.90;3.63;;;14.50;99.90;;;;;;5072714;28;20200;-71
2023/07/17 08:58:49;;;;;;;9.87;3.90;;;14.40;99.90;;;;;;5072916;28;20652;-71
2023/07/17 09:01:17;;;;;;;8.53;3.40;;;14.30;99.90;;;;;;5071193;28;20184;-70
2023/07/17 09:03:45;;;;;;;7.20;3.40;;;14.10;99.90;;;;;;5074763;28;20217;-70
2023/07/17 09:06:14;;;;;;;8.60;3.40;;;14.00;99.90;;;;;;5076611;28;20678;-69
2023/07/17 09:08:42;;;;;;;9.47;3.77;;;14.00;99.90;;;;;;5074996;28;20596;-67
2023/07/17 09:11:09;;;;;;;8.63;3.83;;;13.90;99.90;;;;;;5076236;28;20271;-68
2023/07/17 09:13:38;;;;;;;9.50;3.60;;;13.80;99.90;;;;;;5075070;28;20241;-70
2023/07/17 09:16:30;;;;;;;10.97;3.67;;;13.70;99.90;;;;;;5075919;28;20231;-73
2023/07/17 09:18:58;;;;;;;7.60;3.37;;;13.50;99.90;;;;;;5074885;28;20188;-70
2023/07/17 09:21:26;;;;;;;12.50;3.73;;;13.50;99.90;;;;;;5076057;28;20593;-68
2023/07/17 09:23:56;;;;;;;9.87;4.17;;;13.40;99.90;;;;;;5076340;28;20191;-71
2023/07/17 09:26:28;;;;;;;8.13;3.23;;;13.40;99.90;;;;;;5076067;28;20187;-72
2023/07/17 09:28:58;;;;;;;9.33;3.60;;;13.30;99.90;;;;;;5074749;28;20180;-70
2023/07/17 09:31:27;;;;;;;9.23;3.23;;;13.20;99.90;;;;;;5075902;28;20187;-72
2023/07/17 09:34:13;;;;;;;9.50;3.80;;;13.20;99.90;;;;;;5074588;28;20581;-68
2023/07/17 09:36:41;;;;;;;10.10;3.87;;;13.10;99.90;;;;;;5074674;28;20307;-72
2023/07/17 09:39:09;;;;;;;10.23;4.00;;;13.10;99.90;;;;;;5075913;28;20266;-69
2023/07/17 09:41:37;;;;;;;13.03;4.20;;;13.00;99.90;;;;;;5075824;28;20174;-69
2023/07/17 09:44:06;;;;;;;9.77;3.80;;;13.00;99.90;;;;;;5076124;28;20294;-69
2023/07/17 09:46:37;;;;;;;14.90;4.13;;;13.00;99.90;;;;;;5075922;28;20215;-70
2023/07/17 09:49:09;;;;;;;10.77;3.63;;;13.00;99.90;;;;;;5075832;28;20186;-71
2023/07/17 09:51:37;;;;;;;9.63;4.07;;;13.00;99.90;;;;;;5075685;28;20187;-71
2023/07/17 09:54:05;;;;;;;11.83;4.37;;;13.00;99.90;;;;;;5075675;28;20590;-72
2023/07/17 09:56:42;;;;;;;16.83;4.83;;;12.90;99.90;;;;;;5075627;28;20662;-70
2023/07/17 09:59:14;;;;;;;9.57;4.40;;;12.90;99.90;;;;;;5075784;28;20236;-73
2023/07/17 10:01:48;;;;;;;14.50;5.00;;;12.80;99.90;;;;;;5074111;28;20629;-69
2023/07/17 10:04:39;;;;;;;12.60;4.63;;;12.80;99.90;;;;;;5075509;28;20190;-71
2023/07/17 10:07:09;;;;;;;14.80;5.17;;;12.70;99.90;;;;;;5075420;28;20182;-69
2023/07/17 10:09:40;;;;;;;10.00;4.80;;;12.70;99.90;;;;;;5075536;28;20241;-70
2023/07/17 10:12:08;;;;;;;15.73;6.23;;;12.70;99.90;;;;;;5074239;28;20191;-70
2023/07/17 10:14:39;;;;;;;9.97;5.43;;;12.70;99.90;;;;;;5075505;28;20266;-73
2023/07/17 10:17:46;;;;;;;12.57;6.47;;;12.70;99.90;;;;;;5074005;28;20239;-68
2023/07/17 10:20:13;;;;;;;13.13;6.07;;;12.60;99.90;;;;;;5073800;28;20266;-69
2023/07/17 10:22:45;;;;;;;16.10;6.20;;;12.60;99.90;;;;;;5074917;28;20184;-70
2023/07/17 10:25:19;;;;;;;16.83;6.73;;;12.50;99.90;;;;;;5073902;28;20179;-72
2023/07/17 10:27:52;;;;;;;18.17;8.20;;;12.50;99.90;;;;;;5075160;28;20187;-70
2023/07/17 10:30:37;;;;;;;18.70;7.37;;;12.60;99.90;;;;;;5073599;28;20275;-72
2023/07/17 10:33:13;;;;;;;15.97;6.87;;;12.50;99.90;;;;;;5077031;28;20172;-72
2023/07/17 10:35:58;;;;;;;13.10;6.87;;;12.50;99.90;;;;;;5075416;28;20171;-71
2023/07/17 10:38:28;;;;;;;17.90;8.10;;;12.30;99.90;;;;;;5076581;28;20648;-71
2023/07/17 10:41:16;;;;;;;11.97;7.20;;;12.20;99.90;;;;;;5074599;28;20164;-68
2023/07/17 10:44:07;;;;;;;17.90;7.57;;;12.10;99.90;;;;;;5067592;28;20194;-73
2023/07/17 10:46:39;;;;;;;17.57;7.93;;;12.00;99.90;;;;;;5074913;28;20269;-72
2023/07/17 10:49:11;;;;;;;14.13;7.50;;;12.00;99.90;;;;;;5074526;28;20706;-70
2023/07/17 10:51:46;;;;;;;18.27;7.90;;;12.00;99.90;;;;;;5073131;28;20184;-73
2023/07/17 10:54:15;;;;;;;15.77;8.07;;;12.00;99.90;;;;;;5074414;28;20174;-70
2023/07/17 10:56:46;;;;;;;14.13;7.63;;;12.00;99.90;;;;;;5073059;28;20225;-71
2023/07/17 10:59:14;;;;;;;13.43;8.13;;;12.00;99.90;;;;;;5073013;28;20198;-69
2023/07/17 11:01:43;;;;;;;12.00;6.67;;;11.90;99.90;;;;;;5074463;28;20205;-71
2023/07/17 11:04:11;;;;;;;12.73;6.67;;;11.90;99.90;;;;;;5073206;28;20200;-67
2023/07/17 11:06:38;;;;;;;18.40;7.00;;;11.90;99.90;;;;;;5072773;28;20176;-68
2023/07/17 11:09:07;;;;;;;13.73;7.83;;;11.80;99.90;;;;;;5072772;28;20291;-68
2023/07/17 11:11:34;;;;;;;13.37;6.70;;;11.80;99.90;;;;;;5074106;28;20707;-70
2023/07/17 11:14:04;;;;;;;10.77;6.73;;;11.70;99.90;;;;;;5074175;28;20175;-71
2023/07/17 11:16:33;;;;;;;14.80;7.20;;;11.70;99.90;;;;;;5072295;28;20235;-72
2023/07/17 11:19:03;;;;;;;15.40;7.23;;;11.70;99.90;;;;;;5072588;28;20190;-71
2023/07/17 11:21:32;;;;;;;13.93;7.60;;;11.70;99.90;;;;;;5073737;28;20232;-68
2023/07/17 11:24:01;;;;;;;13.77;7.00;;;11.60;99.90;;;;;;5072891;28;20176;-69
2023/07/17 11:26:32;;;;;;;20.13;8.63;;;11.70;99.90;;;;;;5073411;28;20233;-68
2023/07/17 11:29:02;;;;;;;13.30;8.60;;;11.70;99.90;;;;;;5074419;28;20592;-69
2023/07/17 11:31:32;;;;;;;17.83;7.93;;;11.70;99.90;;;;;;5073459;28;20178;-70
2023/07/17 11:34:10;;;;;;;12.53;7.77;;;11.70;99.90;;;;;;5074125;28;20542;-67
2023/07/17 11:36:42;;;;;;;13.90;7.73;;;11.60;99.90;;;;;;5073655;28;20301;-69
2023/07/17 11:39:21;;;;;;;14.80;8.03;;;11.70;99.90;;;;;;5073687;28;20172;-67
2023/07/17 11:41:53;;;;;;;12.10;7.73;;;11.60;99.90;;;;;;5073368;28;20201;-67
2023/07/17 11:44:32;;;;;;;16.70;8.33;;;11.60;99.90;;;;;;5073642;28;20180;-71
2023/07/17 11:47:02;;;;;;;14.97;7.43;;;11.60;99.90;;;;;;5073539;28;20714;-69
2023/07/17 11:49:31;;;;;;;14.33;7.47;;;11.60;99.90;;;;;;5073676;28;20252;-68
2023/07/17 11:52:02;;;;;;;18.33;7.30;;;11.60;99.90;;;;;;5073475;28;20586;-66
2023/07/17 11:54:49;;;;;;;20.30;8.10;;;11.60;99.90;;;;;;5073255;28;20239;-67
2023/07/17 11:57:16;;;;;;;19.30;7.17;;;11.60;99.90;;;;;;5073278;28;20225;-67
2023/07/17 11:59:47;;;;;;;15.00;7.20;;;11.60;99.90;;;;;;5073158;28;20344;-67
2023/07/17 12:02:14;;;;;;;11.47;7.83;;;11.70;99.90;;;;;;5073389;28;20179;-67
2023/07/17 12:04:42;;;;;;;14.37;8.40;;;11.70;99.90;;;;;;5073110;28;20654;-66
2023/07/17 12:07:19;;;;;;;22.07;10.83;;;11.80;99.90;;;;;;5071927;28;20179;-69
2023/07/17 12:09:49;;;;;;;18.93;9.20;;;11.90;99.90;;;;;;5071838;28;20190;-67
2023/07/17 12:12:17;;;;;;;15.00;9.43;;;12.00;99.90;;;;;;5071845;28;20186;-71
2023/07/17 12:14:44;;;;;;;15.50;9.73;;;12.00;99.90;;;;;;5073376;28;20202;-70
2023/07/17 12:17:12;;;;;;;16.57;9.30;;;12.00;99.90;;;;;;5071515;28;20648;-69
2023/07/17 12:19:41;;;;;;;15.77;10.17;;;12.10;99.90;;;;;;5071510;28;20182;-69
2023/07/17 12:22:09;;;;;;;16.80;8.97;;;12.10;99.90;;;;;;5073484;28;20191;-68
2023/07/17 12:24:36;;;;;;;16.80;9.17;;;12.10;99.90;;;;;;5071767;28;20716;-69
2023/07/17 12:27:04;;;;;;;14.03;8.13;;;12.20;99.90;;;;;;5073112;28;20585;-68
2023/07/17 12:29:31;;;;;;;18.37;9.53;;;12.20;99.90;;;;;;5071582;28;20631;-68
2023/07/17 12:31:59;;;;;;;13.00;7.97;;;12.10;99.90;;;;;;5073227;28;20232;-69
2023/07/17 12:34:26;;;;;;;15.97;9.17;;;12.00;99.90;;;;;;5073294;28;20183;-69
2023/07/17 12:36:54;;;;;;;17.63;8.30;;;11.90;99.90;;;;;;5071817;28;20571;-69
2023/07/17 12:39:25;;;;;;;13.77;7.90;;;11.90;99.90;;;;;;5076102;28;20191;-67
2023/07/17 12:41:53;;;;;;;12.10;7.50;;;11.80;99.90;;;;;;5076835;28;20192;-69
2023/07/17 12:44:20;;;;;;;17.00;7.90;;;11.70;99.90;;;;;;5076835;28;20198;-69
2023/07/17 12:46:48;;;;;;;15.23;7.13;;;11.60;99.90;;;;;;5075691;28;20546;-69
2023/07/17 12:49:15;;;;;;;13.03;6.60;;;11.60;99.90;;;;;;5075468;28;20186;-68
2023/07/17 12:51:43;;;;;;;14.77;7.43;;;11.60;99.90;;;;;;5075350;28;20515;-71